Time;durP1;ratioP1;P1;durP2;ratioP2;P2;SDS_P1;SDS_P2;PMS_P1;PMS_P2;Temp;Humidity;BMP_temperature;BMP_pressure;BME280_temperature;BME280_humidity;BME280_pressure;Samples;Min_cycle;Max_cycle;Signal;HPM_P1;HPM_P2
2023/12/30 00:00:17;;;;;;;;;104.75;99.25;;;;;11.84;37.18;99597.09;5068818;28;8869;-78
2023/12/30 00:03:07;;;;;;;;;80.75;73.25;;;;;11.87;37.52;99601.41;5041033;28;11626;-77
2023/12/30 00:05:37;;;;;;;;;69.67;55.00;;;;;11.67;37.82;99599.22;5034915;28;10395;-77
2023/12/30 00:08:06;;;;;;;;;67.25;53.25;;;;;11.77;37.51;99601.59;5068683;28;9065;-78
2023/12/30 00:10:36;;;;;;;;;60.25;49.00;;;;;11.82;37.31;99598.88;5052018;28;8944;-77
2023/12/30 00:13:05;;;;;;;;;61.50;48.75;;;;;11.71;37.31;99596.50;5070408;28;8862;-77
2023/12/30 00:15:34;;;;;;;;;60.75;49.25;;;;;11.75;37.06;99600.78;5050977;28;8893;-78
2023/12/30 00:18:04;;;;;;;;;59.75;47.25;;;;;11.53;37.14;99595.16;5068581;28;8870;-79
2023/12/30 00:20:33;;;;;;;;;54.75;44.25;;;;;11.25;37.50;99597.59;5069672;28;8854;-78
2023/12/30 00:23:02;;;;;;;;;50.50;42.75;;;;;11.32;37.68;99601.81;5069735;28;8939;-77
2023/12/30 00:25:31;;;;;;;;;54.00;41.25;;;;;11.46;37.21;99593.56;5069985;28;8854;-79
2023/12/30 00:28:02;;;;;;;;;48.75;39.75;;;;;11.47;36.96;99592.69;5051377;28;8866;-78
2023/12/30 00:30:31;;;;;;;;;56.00;43.75;;;;;11.60;37.27;99597.63;5051291;28;8862;-78
2023/12/30 00:33:00;;;;;;;;;53.75;44.75;;;;;11.71;37.08;99593.88;5068155;28;8904;-76
2023/12/30 00:35:30;;;;;;;;;45.75;39.00;;;;;11.74;36.70;99596.41;5069439;28;8826;-77
2023/12/30 00:37:59;;;;;;;;;55.00;45.75;;;;;11.76;36.60;99597.22;5068006;28;8862;-76
2023/12/30 00:40:28;;;;;;;;;52.00;43.75;;;;;11.80;36.63;99595.38;5064608;28;8875;-76
2023/12/30 00:42:57;;;;;;;;;41.00;36.75;;;;;11.47;36.52;99597.09;5014159;28;8857;-78
2023/12/30 00:45:27;;;;;;;;;38.75;34.25;;;;;11.54;36.55;99602.19;5031035;28;8999;-77
2023/12/30 00:47:57;;;;;;;;;40.50;35.50;;;;;11.59;36.88;99598.56;5049268;28;8939;-76
2023/12/30 00:50:26;;;;;;;;;40.50;36.00;;;;;11.56;36.92;99602.16;5052031;28;8854;-77
2023/12/30 00:52:54;;;;;;;;;39.25;35.50;;;;;11.51;37.04;99591.72;5034405;28;8846;-78
2023/12/30 00:55:24;;;;;;;;;42.25;34.25;;;;;11.50;36.81;99592.63;5018571;28;9619;-77
2023/12/30 00:57:52;;;;;;;;;32.40;30.60;;;;;11.52;36.46;99593.44;5034701;28;8855;-78
2023/12/30 01:00:22;;;;;;;;;29.00;28.00;;;;;11.51;36.56;99598.75;5067959;28;9603;-76
2023/12/30 01:02:52;;;;;;;;;27.60;26.00;;;;;11.37;36.58;99591.19;5068068;28;8862;-77
2023/12/30 01:05:21;;;;;;;;;26.20;21.20;;;;;11.29;36.55;99606.28;5069468;28;8835;-77
2023/12/30 01:07:50;;;;;;;;;30.20;27.80;;;;;11.15;37.21;99603.97;5069382;28;8874;-77
2023/12/30 01:10:19;;;;;;;;;28.00;28.00;;;;;11.15;37.73;99601.34;5068363;28;8873;-77
2023/12/30 01:12:48;;;;;;;;;35.20;33.00;;;;;11.41;36.79;99605.13;5068357;28;9422;-77
2023/12/30 01:15:17;;;;;;;;;30.80;29.40;;;;;11.53;36.59;99604.84;5069650;28;8875;-76
2023/12/30 01:17:46;;;;;;;;;33.60;32.40;;;;;11.56;36.55;99608.28;5067340;28;8885;-76
2023/12/30 01:20:18;;;;;;;;;32.25;31.00;;;;;11.61;36.71;99608.16;5067359;28;8846;-78
2023/12/30 01:22:46;;;;;;;;;28.25;24.75;;;;;11.67;36.79;99609.75;5067856;28;8870;-77
2023/12/30 01:25:15;;;;;;;;;37.75;34.00;;;;;11.73;36.42;99605.22;5067898;28;8877;-77
2023/12/30 01:27:44;;;;;;;;;39.00;35.75;;;;;11.85;36.90;99611.13;5068409;28;8850;-78
2023/12/30 01:30:14;;;;;;;;;40.00;35.50;;;;;11.95;36.45;99613.47;5067771;28;9623;-76
2023/12/30 01:32:43;;;;;;;;;41.75;34.00;;;;;12.05;36.55;99603.59;5067345;28;8854;-76
2023/12/30 01:35:14;;;;;;;;;42.25;35.00;;;;;12.05;36.74;99603.59;5068652;28;8865;-79
2023/12/30 01:37:44;;;;;;;;;41.50;35.00;;;;;12.12;36.38;99599.84;5017560;28;10064;-78
2023/12/30 01:40:14;;;;;;;;;37.50;33.75;;;;;12.18;36.55;99605.88;5067491;28;8842;-77
2023/12/30 01:42:43;;;;;;;;;30.40;29.00;;;;;12.01;36.19;99607.16;5034819;28;8899;-77
2023/12/30 01:45:12;;;;;;;;;33.40;31.20;;;;;12.05;35.99;99605.31;5070765;28;8849;-77
2023/12/30 01:47:41;;;;;;;;;28.40;27.20;;;;;11.97;36.03;99596.75;5034855;28;8983;-77
2023/12/30 01:50:11;;;;;;;;;28.80;27.60;;;;;11.90;36.34;99598.69;5067856;28;8835;-77
2023/12/30 01:52:40;;;;;;;;;29.20;27.60;;;;;11.84;36.38;99601.47;5068064;28;9012;-77
2023/12/30 01:55:11;;;;;;;;;36.40;32.00;;;;;11.87;36.34;99599.63;5067359;28;9009;-76
2023/12/30 01:57:40;;;;;;;;;27.40;26.20;;;;;11.92;36.15;99602.16;5033575;28;8858;-78
2023/12/30 02:00:12;;;;;;;;;29.40;25.00;;;;;11.86;36.36;99592.66;5049090;28;8954;-77
2023/12/30 02:02:42;;;;;;;;;28.80;28.20;;;;;11.87;36.53;99593.50;5082631;28;8848;-77
2023/12/30 02:05:12;;;;;;;;;31.40;30.00;;;;;11.88;36.36;99600.50;5049205;28;8886;-79
2023/12/30 02:07:46;;;;;;;;;36.00;32.80;;;;;11.94;36.45;99597.72;5017426;28;8832;-75
2023/12/30 02:10:16;;;;;;;;;33.80;30.20;;;;;11.95;36.12;99597.66;5065718;28;8937;-77
2023/12/30 02:12:44;;;;;;;;;39.60;30.40;;;;;11.81;36.15;99593.63;5066397;28;8852;-78
2023/12/30 02:15:15;;;;;;;;;32.20;29.20;;;;;11.79;36.73;99593.69;5016497;28;8855;-76
2023/12/30 02:17:43;;;;;;;;;30.60;28.80;;;;;11.81;36.35;99597.13;5056279;28;8882;-76
2023/12/30 02:20:13;;;;;;;;;31.60;31.40;;;;;11.85;36.58;99592.69;5029295;28;8854;-77
2023/12/30 02:22:45;;;;;;;;;36.00;30.60;;;;;11.89;36.30;99594.34;5029644;28;8854;-77
2023/12/30 02:25:14;;;;;;;;;31.80;30.60;;;;;11.92;36.48;99592.50;5045706;28;8842;-77
2023/12/30 02:27:44;;;;;;;;;28.20;26.40;;;;;11.90;36.46;99586.41;5045730;28;8874;-76
2023/12/30 02:30:14;;;;;;;;;36.40;32.00;;;;;11.96;36.60;99593.28;5059809;28;8857;-79
2023/12/30 02:32:43;;;;;;;;;40.20;33.80;;;;;12.00;36.33;99592.28;5048712;28;8863;-80
2023/12/30 02:35:12;;;;;;;;;35.40;32.20;;;;;12.04;36.71;99586.03;5016739;28;8851;-77
2023/12/30 02:37:41;;;;;;;;;39.00;34.25;;;;;12.07;36.26;99588.59;5023002;28;8888;-78
2023/12/30 02:40:12;;;;;;;;;35.60;30.60;;;;;12.10;36.43;99588.50;5071885;28;8846;-78
2023/12/30 02:42:41;;;;;;;;;36.50;33.50;;;;;12.10;36.39;99588.50;5069756;28;8862;-77
2023/12/30 02:45:11;;;;;;;;;35.00;33.40;;;;;12.09;36.27;99586.78;5070938;28;8846;-78
2023/12/30 02:47:40;;;;;;;;;33.20;32.20;;;;;12.13;36.03;99584.94;5071443;28;8881;-78
2023/12/30 02:50:10;;;;;;;;;37.00;34.40;;;;;12.11;36.72;99581.47;5070240;28;9712;-78
2023/12/30 02:52:39;;;;;;;;;46.25;38.75;;;;;12.13;36.43;99583.16;5071342;28;9608;-76
2023/12/30 02:55:08;;;;;;;;;54.50;45.25;;;;;12.12;37.27;99580.56;5069751;28;8849;-76
2023/12/30 02:57:38;;;;;;;;;49.25;41.25;;;;;12.11;37.34;99582.31;5048760;28;9643;-77
2023/12/30 03:00:18;;;;;;;;;48.25;41.75;;;;;12.13;37.39;99593.69;5032768;28;8858;-78
2023/12/30 03:02:48;;;;;;;;;40.75;36.50;;;;;12.09;37.11;99586.78;5000647;28;8866;-78
2023/12/30 03:05:17;;;;;;;;;39.50;35.00;;;;;12.08;37.43;99590.31;5032209;28;8850;-77
2023/12/30 03:07:47;;;;;;;;;36.00;33.00;;;;;12.08;36.66;99590.31;5031836;28;8858;-77
2023/12/30 03:10:17;;;;;;;;;38.75;34.50;;;;;12.03;37.21;99589.59;5048597;28;8862;-77
2023/12/30 03:12:47;;;;;;;;;35.00;32.80;;;;;12.04;37.24;99599.19;5048296;28;8862;-75
2023/12/30 03:15:16;;;;;;;;;38.50;35.00;;;;;12.01;37.12;99594.00;4983219;28;8900;-77
2023/12/30 03:17:45;;;;;;;;;33.75;32.25;;;;;12.02;37.22;99595.75;5048392;28;8925;-76
2023/12/30 03:20:14;;;;;;;;;38.75;34.75;;;;;11.97;37.29;99595.00;5031486;28;8842;-78
2023/12/30 03:22:43;;;;;;;;;44.25;36.75;;;;;11.97;37.14;99597.63;5048115;28;9014;-77
2023/12/30 03:25:12;;;;;;;;;43.00;37.75;;;;;11.98;37.31;99598.50;5031569;28;8843;-76
2023/12/30 03:27:41;;;;;;;;;47.25;38.75;;;;;11.96;37.72;99593.28;5031822;28;8877;-77
2023/12/30 03:30:12;;;;;;;;;48.25;38.75;;;;;11.99;37.60;99600.22;5018430;28;9043;-77
2023/12/30 03:32:41;;;;;;;;;42.00;35.25;;;;;11.96;37.72;99601.19;5085874;28;8931;-77
2023/12/30 03:35:10;;;;;;;;;46.75;38.75;;;;;11.94;37.48;99598.56;5070755;28;8874;-78
2023/12/30 03:37:40;;;;;;;;;49.00;42.00;;;;;11.91;37.92;99606.53;5069012;28;8985;-78
2023/12/30 03:40:10;;;;;;;;;51.00;42.00;;;;;11.89;38.12;99602.22;5070351;28;9612;-78
2023/12/30 03:42:39;;;;;;;;;46.50;39.25;;;;;11.88;37.98;99597.84;5069104;28;8850;-76
2023/12/30 03:45:09;;;;;;;;;54.00;45.25;;;;;11.80;38.08;99600.66;5035782;28;8884;-77
2023/12/30 03:47:40;;;;;;;;;56.00;44.00;;;;;11.70;38.31;99596.53;5070355;28;8854;-80
2023/12/30 03:50:10;;;;;;;;;54.75;45.50;;;;;11.70;38.46;99602.66;5070912;28;8846;-77
2023/12/30 03:52:39;;;;;;;;;51.25;42.25;;;;;11.70;38.29;99599.16;5036751;28;8885;-77
2023/12/30 03:55:09;;;;;;;;;52.25;42.75;;;;;11.68;38.57;99606.25;5069140;28;9584;-76
2023/12/30 03:57:38;;;;;;;;;49.75;41.75;;;;;11.66;38.42;99603.63;5085833;28;9591;-78
2023/12/30 04:00:09;;;;;;;;;48.25;38.25;;;;;11.65;38.69;99617.69;5069925;28;8842;-77
2023/12/30 04:02:42;;;;;;;;;48.25;38.75;;;;;11.66;38.80;99618.59;5069883;28;8964;-76
2023/12/30 04:05:11;;;;;;;;;42.75;37.25;;;;;11.65;38.75;99615.06;5070186;28;8842;-76
2023/12/30 04:07:40;;;;;;;;;49.75;42.75;;;;;11.64;38.52;99612.50;5068752;28;8977;-76
2023/12/30 04:10:12;;;;;;;;;50.50;42.00;;;;;11.64;38.30;99610.72;5069725;28;8865;-79
2023/12/30 04:12:41;;;;;;;;;49.25;39.75;;;;;11.62;38.71;99616.94;5068238;28;8861;-77
2023/12/30 04:15:11;;;;;;;;;48.00;40.50;;;;;11.53;38.96;99618.84;5018404;28;8839;-77
2023/12/30 04:17:40;;;;;;;;;49.50;38.50;;;;;11.57;38.29;99624.91;5068032;28;8981;-77
2023/12/30 04:20:12;;;;;;;;;45.25;39.00;;;;;11.54;39.09;99627.63;5068080;28;8835;-77
2023/12/30 04:22:41;;;;;;;;;44.75;39.00;;;;;11.53;38.79;99633.81;5068394;28;8881;-77
2023/12/30 04:25:10;;;;;;;;;49.50;41.25;;;;;11.54;38.99;99635.50;5085539;28;8873;-77
2023/12/30 04:27:38;;;;;;;;;46.50;38.75;;;;;11.55;38.91;99622.31;5068860;28;8866;-77
2023/12/30 04:30:09;;;;;;;;;44.25;38.75;;;;;11.57;38.65;99630.19;5070036;28;8850;-79
2023/12/30 04:32:38;;;;;;;;;41.50;37.50;;;;;11.54;38.95;99635.50;5051835;28;8948;-77
2023/12/30 04:35:08;;;;;;;;;44.00;38.00;;;;;11.53;38.72;99644.31;5069518;28;8893;-76
2023/12/30 04:37:38;;;;;;;;;52.50;42.00;;;;;11.52;39.05;99637.31;5067936;28;8842;-77
2023/12/30 04:40:08;;;;;;;;;50.00;41.50;;;;;11.47;39.03;99640.06;5067481;28;8858;-78
2023/12/30 04:42:37;;;;;;;;;51.75;39.75;;;;;11.46;39.31;99648.00;5067943;28;8915;-77
2023/12/30 04:45:12;;;;;;;;;38.25;35.75;;;;;11.45;39.25;99651.53;5084731;28;8889;-79
2023/12/30 04:47:41;;;;;;;;;47.75;40.50;;;;;11.44;39.35;99652.44;5069275;28;9004;-78
2023/12/30 04:50:11;;;;;;;;;47.50;40.25;;;;;11.42;38.96;99651.59;5067667;28;8862;-77
2023/12/30 04:52:42;;;;;;;;;49.50;42.00;;;;;11.42;38.97;99651.59;5067599;28;8866;-79
2023/12/30 04:55:12;;;;;;;;;50.00;42.00;;;;;11.41;39.19;99649.84;5069091;28;8850;-76
2023/12/30 04:57:47;;;;;;;;;53.25;44.50;;;;;11.38;39.37;99651.66;5084557;28;8881;-77
2023/12/30 05:00:18;;;;;;;;;63.00;51.50;;;;;11.36;39.52;99649.97;5067261;28;9701;-77
2023/12/30 05:02:51;;;;;;;;;74.00;57.75;;;;;11.33;39.42;99648.28;5047597;28;9008;-77
2023/12/30 05:05:21;;;;;;;;;54.00;45.25;;;;;11.31;39.58;99647.47;5066549;28;8838;-77
2023/12/30 05:07:51;;;;;;;;;60.00;48.75;;;;;11.34;40.07;99646.53;5032607;28;8969;-77
2023/12/30 05:10:20;;;;;;;;;57.25;46.50;;;;;11.33;39.66;99645.66;5047027;28;8939;-77
2023/12/30 05:12:50;;;;;;;;;55.50;46.00;;;;;11.35;39.57;99646.50;5014012;28;8955;-77
2023/12/30 05:15:20;;;;;;;;;55.00;46.75;;;;;11.36;39.91;99642.94;5046907;28;8850;-76
2023/12/30 05:17:48;;;;;;;;;55.75;47.25;;;;;11.31;39.45;99644.84;5046881;28;8890;-77
2023/12/30 05:20:18;;;;;;;;;54.00;43.25;;;;;11.29;39.87;99648.38;4997756;28;9064;-77
2023/12/30 05:22:47;;;;;;;;;55.25;45.75;;;;;11.25;39.87;99647.56;5029756;28;8893;-78
2023/12/30 05:25:18;;;;;;;;;54.00;45.50;;;;;11.22;39.90;99642.41;5046405;28;8862;-77
2023/12/30 05:27:46;;;;;;;;;57.25;46.00;;;;;11.17;40.16;99645.13;5046213;28;9051;-78
2023/12/30 05:30:15;;;;;;;;;55.00;45.75;;;;;11.17;39.84;99645.13;5046162;28;8854;-77
2023/12/30 05:32:44;;;;;;;;;55.75;46.00;;;;;11.12;40.29;99644.38;5046154;28;8959;-77
2023/12/30 05:35:13;;;;;;;;;53.75;44.25;;;;;11.00;40.44;99647.25;5067874;28;8884;-77
2023/12/30 05:37:42;;;;;;;;;55.25;45.00;;;;;10.91;40.47;99640.41;5067279;28;8959;-76
2023/12/30 05:40:12;;;;;;;;;54.00;44.25;;;;;10.89;40.60;99642.22;5068408;28;9018;-77
2023/12/30 05:42:43;;;;;;;;;59.00;47.00;;;;;10.75;40.79;99645.13;5049929;28;8858;-76
2023/12/30 05:45:12;;;;;;;;;53.00;45.50;;;;;10.68;41.00;99646.09;5069290;28;8865;-78
2023/12/30 05:47:41;;;;;;;;;60.00;47.50;;;;;10.45;41.79;99640.44;5068617;28;8855;-77
2023/12/30 05:50:12;;;;;;;;;60.50;48.00;;;;;10.32;42.32;99647.69;5068393;28;8994;-77
2023/12/30 05:52:41;;;;;;;;;59.00;48.25;;;;;10.21;42.27;99648.72;5068165;28;8878;-78
2023/12/30 05:55:10;;;;;;;;;58.00;48.00;;;;;9.96;42.78;99642.19;5068170;28;8838;-78
2023/12/30 05:57:39;;;;;;;;;61.50;49.00;;;;;9.95;42.85;99645.69;5068314;28;8880;-78
2023/12/30 06:00:11;;;;;;;;;62.75;51.25;;;;;9.85;43.38;99652.00;5068403;28;8885;-77
2023/12/30 06:02:42;;;;;;;;;59.25;47.75;;;;;10.07;42.77;99657.78;5066220;28;8834;-78
2023/12/30 06:05:11;;;;;;;;;57.25;47.00;;;;;10.10;42.99;99657.69;5068490;28;8842;-77
2023/12/30 06:07:39;;;;;;;;;61.50;48.50;;;;;10.31;42.34;99673.09;5068821;28;9623;-77
2023/12/30 06:10:09;;;;;;;;;66.50;53.25;;;;;10.44;42.07;99676.34;5050378;28;8881;-77
2023/12/30 06:12:38;;;;;;;;;61.75;47.50;;;;;10.55;41.95;99679.66;5066807;28;8854;-76
2023/12/30 06:15:09;;;;;;;;;57.25;47.75;;;;;10.62;41.79;99676.91;5071871;28;8842;-77
2023/12/30 06:17:38;;;;;;;;;66.75;53.75;;;;;10.64;41.73;99691.75;4996691;28;8857;-77
2023/12/30 06:20:10;;;;;;;;;61.50;48.75;;;;;10.66;41.85;99692.59;5029405;28;8853;-77
2023/12/30 06:22:38;;;;;;;;;62.50;51.25;;;;;10.66;41.94;99689.09;5029625;28;8868;-77
2023/12/30 06:25:08;;;;;;;;;64.50;52.00;;;;;10.72;41.85;99695.09;5046097;28;8849;-77
2023/12/30 06:27:37;;;;;;;;;68.75;54.50;;;;;10.77;41.53;99690.66;5029325;28;8877;-77
2023/12/30 06:30:07;;;;;;;;;69.25;55.25;;;;;10.83;41.74;99694.94;5029367;28;8873;-78
2023/12/30 06:32:38;;;;;;;;;61.25;50.00;;;;;10.90;41.50;99691.28;5029110;28;8947;-77
2023/12/30 06:35:07;;;;;;;;;64.25;51.00;;;;;10.91;41.41;99687.75;5020627;28;8909;-76
2023/12/30 06:37:36;;;;;;;;;63.25;50.00;;;;;10.96;41.69;99685.91;5053304;28;8839;-80
2023/12/30 06:40:07;;;;;;;;;51.25;42.25;;;;;10.98;41.47;99689.38;5053065;28;8862;-79
2023/12/30 06:42:37;;;;;;;;;61.50;50.00;;;;;11.01;41.35;99688.44;5070114;28;9777;-76
2023/12/30 06:45:07;;;;;;;;;62.25;49.50;;;;;11.04;41.38;99690.13;5069822;28;8969;-78
2023/12/30 06:47:37;;;;;;;;;59.50;50.00;;;;;11.08;41.52;99697.06;5036446;28;8877;-78
2023/12/30 06:50:07;;;;;;;;;58.00;49.00;;;;;11.09;41.43;99701.44;5070289;28;9005;-77
2023/12/30 06:52:36;;;;;;;;;64.75;50.75;;;;;11.14;41.14;99699.56;5071081;28;8948;-78
2023/12/30 06:55:07;;;;;;;;;61.25;51.00;;;;;11.16;41.10;99703.03;5071197;28;8842;-77
2023/12/30 06:57:50;;;;;;;;;61.00;50.75;;;;;11.15;41.15;99701.31;5054926;28;8873;-77
2023/12/30 07:00:20;;;;;;;;;62.50;51.00;;;;;11.16;41.57;99703.91;5071832;28;8866;-76
2023/12/30 07:02:51;;;;;;;;;66.00;52.00;;;;;11.20;41.30;99706.47;5071213;28;8930;-77
2023/12/30 07:05:20;;;;;;;;;63.25;51.00;;;;;11.24;41.34;99709.03;5052692;28;8877;-76
2023/12/30 07:07:49;;;;;;;;;64.00;51.25;;;;;11.27;41.37;99708.06;5072662;28;9021;-78
2023/12/30 07:10:18;;;;;;;;;66.00;53.75;;;;;11.29;40.70;99709.75;5071327;28;8936;-77
2023/12/30 07:12:46;;;;;;;;;56.00;45.75;;;;;11.32;41.18;99714.13;5071128;28;8862;-78
2023/12/30 07:15:16;;;;;;;;;64.00;52.50;;;;;11.32;41.09;99714.13;5052077;28;8865;-78
2023/12/30 07:17:45;;;;;;;;;63.00;50.25;;;;;11.34;41.11;99710.53;5070935;28;10434;-79
2023/12/30 07:20:16;;;;;;;;;63.50;49.00;;;;;11.35;40.71;99714.03;5070567;28;8859;-77
2023/12/30 07:22:45;;;;;;;;;61.50;50.50;;;;;11.37;40.84;99712.25;5070878;28;8873;-77
2023/12/30 07:25:14;;;;;;;;;62.75;50.75;;;;;11.41;40.74;99718.28;5052428;28;8854;-77
2023/12/30 07:27:43;;;;;;;;;62.25;50.00;;;;;11.42;41.02;99712.16;5070443;28;8854;-76
2023/12/30 07:30:13;;;;;;;;;60.00;49.00;;;;;11.45;41.06;99725.25;5070479;28;8850;-77
2023/12/30 07:32:42;;;;;;;;;61.25;49.75;;;;;11.46;40.67;99730.47;5052667;28;8854;-78
2023/12/30 07:35:11;;;;;;;;;59.50;46.75;;;;;11.47;40.63;99716.41;5070301;28;8885;-77
2023/12/30 07:37:41;;;;;;;;;61.00;48.25;;;;;11.32;40.90;99717.59;5070988;28;8830;-81
2023/12/30 07:40:11;;;;;;;;;56.00;46.00;;;;;11.40;40.66;99721.84;5069575;28;8869;-78
2023/12/30 07:42:40;;;;;;;;;56.25;47.00;;;;;11.44;40.51;99716.47;5069418;28;8842;-78
2023/12/30 07:45:10;;;;;;;;;59.75;48.50;;;;;11.51;40.56;99715.44;5070267;28;9582;-78
2023/12/30 07:47:39;;;;;;;;;62.75;49.50;;;;;11.57;40.21;99719.69;5068964;28;9592;-79
2023/12/30 07:50:10;;;;;;;;;59.75;48.50;;;;;11.61;40.58;99712.59;5069232;28;9001;-80
2023/12/30 07:52:39;;;;;;;;;59.75;47.50;;;;;11.70;40.17;99717.66;5070617;28;9020;-77
2023/12/30 07:55:10;;;;;;;;;57.50;47.25;;;;;11.67;40.23;99717.72;5070663;28;8839;-77
2023/12/30 07:57:38;;;;;;;;;58.25;48.25;;;;;11.70;40.27;99713.25;5069151;28;8885;-78
2023/12/30 08:00:09;;;;;;;;;59.25;48.75;;;;;11.58;40.54;99710.91;5068440;28;8881;-78
2023/12/30 08:02:40;;;;;;;;;66.50;53.75;;;;;11.68;40.47;99714.19;5052588;28;8882;-77
2023/12/30 08:05:10;;;;;;;;;57.75;46.50;;;;;11.56;40.45;99710.94;5070256;28;8979;-79
2023/12/30 08:07:38;;;;;;;;;53.75;44.50;;;;;11.57;40.69;99717.06;5070453;28;8931;-80
2023/12/30 08:10:11;;;;;;;;;55.75;46.25;;;;;11.64;40.44;99723.94;5070945;28;8853;-77
2023/12/30 08:12:40;;;;;;;;;58.75;47.25;;;;;11.64;40.42;99729.19;5071118;28;8838;-77
2023/12/30 08:15:10;;;;;;;;;54.75;43.75;;;;;11.69;40.47;99732.59;5086010;28;8931;-78
2023/12/30 08:17:40;;;;;;;;;53.00;43.25;;;;;11.76;40.99;99733.31;5051435;28;8874;-77
2023/12/30 08:20:11;;;;;;;;;51.50;43.00;;;;;11.79;40.70;99732.41;5069328;28;8842;-77
2023/12/30 08:22:41;;;;;;;;;42.50;37.50;;;;;11.83;40.16;99734.94;5018809;28;8861;-79
2023/12/30 08:25:13;;;;;;;;;47.25;38.00;;;;;12.02;39.94;99740.66;5051475;28;9600;-77
2023/12/30 08:27:42;;;;;;;;;45.50;38.50;;;;;11.99;39.83;99738.06;5070143;28;8854;-77
2023/12/30 08:30:12;;;;;;;;;45.00;37.25;;;;;12.10;39.79;99743.09;5048710;28;9555;-78
2023/12/30 08:32:40;;;;;;;;;50.75;42.75;;;;;12.20;39.94;99746.38;5031719;28;8853;-79
2023/12/30 08:35:11;;;;;;;;;48.25;41.50;;;;;12.22;39.62;99737.53;5052281;28;9725;-77
2023/12/30 08:37:40;;;;;;;;;47.00;37.25;;;;;12.29;39.46;99743.50;5051424;28;8960;-79
2023/12/30 08:40:14;;;;;;;;;43.75;35.75;;;;;12.34;39.46;99752.19;5048689;28;8888;-80
2023/12/30 08:42:44;;;;;;;;;34.00;31.00;;;;;12.39;39.46;99746.78;5015559;28;9730;-79
2023/12/30 08:45:18;;;;;;;;;43.25;37.50;;;;;12.35;39.36;99746.00;5049457;28;8845;-77
2023/12/30 08:47:47;;;;;;;;;43.50;38.00;;;;;12.44;39.25;99740.47;5064733;28;8849;-78
2023/12/30 08:50:17;;;;;;;;;47.25;39.00;;;;;12.37;39.22;99741.53;5049045;28;8865;-79
2023/12/30 08:52:45;;;;;;;;;44.75;38.25;;;;;12.31;39.13;99733.78;5047588;28;8922;-77
2023/12/30 08:55:16;;;;;;;;;44.25;38.00;;;;;12.31;39.56;99739.06;5068819;28;9612;-78
2023/12/30 08:57:45;;;;;;;;;49.50;40.75;;;;;12.31;39.35;99739.06;5068781;28;8846;-77
2023/12/30 09:00:15;;;;;;;;;48.50;39.75;;;;;12.21;39.60;99754.25;5067691;28;8866;-77
2023/12/30 09:02:47;;;;;;;;;47.75;38.75;;;;;12.35;39.10;99756.53;5068722;28;8862;-78
2023/12/30 09:05:18;;;;;;;;;46.25;38.50;;;;;12.50;39.09;99757.91;5051192;28;8850;-78
2023/12/30 09:07:48;;;;;;;;;47.75;40.75;;;;;12.51;39.23;99762.31;5068502;28;8896;-79
2023/12/30 09:10:20;;;;;;;;;42.25;37.25;;;;;12.72;38.95;99755.59;5068718;28;9707;-78
2023/12/30 09:12:49;;;;;;;;;34.25;29.75;;;;;12.79;38.52;99758.94;5068210;28;8870;-78
2023/12/30 09:15:18;;;;;;;;;44.75;38.25;;;;;12.87;38.40;99759.63;5069075;28;8912;-80
2023/12/30 09:17:47;;;;;;;;;47.75;38.50;;;;;12.89;38.42;99756.03;5067718;28;8870;-78
2023/12/30 09:20:16;;;;;;;;;34.50;31.25;;;;;12.96;38.71;99746.19;5084273;28;8835;-78
2023/12/30 09:22:45;;;;;;;;;49.00;39.00;;;;;13.08;38.26;99745.84;5068615;28;8862;-77
2023/12/30 09:25:14;;;;;;;;;46.25;40.00;;;;;13.17;38.21;99743.88;5033620;28;8862;-77
2023/12/30 09:27:45;;;;;;;;;49.75;40.00;;;;;13.23;38.11;99748.97;5033388;28;8830;-78
2023/12/30 09:30:15;;;;;;;;;48.25;38.00;;;;;13.28;37.75;99742.66;5067267;28;8873;-77
2023/12/30 09:32:44;;;;;;;;;45.75;38.00;;;;;13.35;38.75;99739.81;5068559;28;8878;-79
2023/12/30 09:35:15;;;;;;;;;46.50;38.25;;;;;13.42;38.56;99744.00;5068227;28;8866;-76
2023/12/30 09:37:43;;;;;;;;;49.00;40.25;;;;;13.46;38.80;99733.31;5068310;28;8842;-77
2023/12/30 09:40:13;;;;;;;;;46.50;38.50;;;;;13.49;39.50;99735.00;4999898;28;8874;-78
2023/12/30 09:42:46;;;;;;;;;52.75;43.00;;;;;13.60;39.62;99724.09;5032709;28;8959;-77
2023/12/30 09:45:16;;;;;;;;;49.75;42.25;;;;;13.52;39.43;99726.97;5069386;28;8931;-78
2023/12/30 09:47:46;;;;;;;;;51.00;42.75;;;;;13.69;38.74;99719.41;5068605;28;8850;-79
2023/12/30 09:50:16;;;;;;;;;55.00;44.50;;;;;13.76;38.15;99713.94;5071038;28;8846;-77
2023/12/30 09:52:44;;;;;;;;;44.75;38.00;;;;;13.82;38.82;99717.25;5087175;28;8854;-77
2023/12/30 09:55:14;;;;;;;;;51.50;42.00;;;;;13.87;38.04;99715.34;5072076;28;8865;-77
2023/12/30 09:57:46;;;;;;;;;49.75;42.00;;;;;13.97;37.37;99713.25;5072009;28;8866;-77
2023/12/30 10:00:17;;;;;;;;;52.75;44.75;;;;;13.95;37.48;99712.47;5072435;28;8835;-79
2023/12/30 10:02:47;;;;;;;;;51.50;42.25;;;;;14.02;37.13;99700.78;5072854;28;8900;-76
2023/12/30 10:05:17;;;;;;;;;53.75;43.75;;;;;13.92;37.42;99706.41;5072512;28;8862;-77
2023/12/30 10:07:46;;;;;;;;;49.00;42.25;;;;;14.03;37.62;99699.84;5052811;28;8877;-76
2023/12/30 10:10:17;;;;;;;;;52.25;43.00;;;;;14.01;37.11;99695.53;5071656;28;9624;-78
2023/12/30 10:12:47;;;;;;;;;40.75;35.75;;;;;14.12;36.66;99700.47;5071502;28;8854;-76
2023/12/30 10:15:16;;;;;;;;;39.25;34.50;;;;;14.13;36.74;99703.06;5070396;28;8870;-74
2023/12/30 10:17:45;;;;;;;;;39.00;33.00;;;;;14.17;36.61;99703.81;5071631;28;8882;-77
2023/12/30 10:20:23;;;;;;;;;42.50;36.00;;;;;13.63;36.61;99705.53;5071870;28;8865;-77
2023/12/30 10:22:52;;;;;;;;;52.75;43.25;;;;;13.39;36.82;99702.72;5071590;28;8866;-78
2023/12/30 10:25:21;;;;;;;;;38.75;33.00;;;;;13.50;37.03;99705.03;5087263;28;9618;-78
2023/12/30 10:27:52;;;;;;;;;40.25;34.50;;;;;13.40;36.84;99701.81;5070433;28;8842;-78
2023/12/30 10:30:21;;;;;;;;;39.00;34.00;;;;;13.54;37.15;99703.16;5070854;28;8935;-78
2023/12/30 10:32:49;;;;;;;;;42.25;36.25;;;;;13.17;37.50;99699.00;5071150;28;8960;-76
2023/12/30 10:35:19;;;;;;;;;35.75;32.00;;;;;13.46;36.71;99692.84;5052528;28;8866;-77
2023/12/30 10:37:49;;;;;;;;;34.20;32.60;;;;;13.27;37.37;99698.66;5071489;28;9016;-79
2023/12/30 10:40:18;;;;;;;;;32.80;28.60;;;;;13.22;36.93;99702.34;5069671;28;8838;-77
2023/12/30 10:42:47;;;;;;;;;23.80;21.60;;;;;12.51;38.13;99706.94;5071274;28;8862;-77
2023/12/30 10:45:17;;;;;;;;;26.80;24.80;;;;;12.69;38.41;99706.44;5071170;28;8839;-77
2023/12/30 10:47:50;;;;;;;;;25.00;23.40;;;;;12.88;38.74;99701.56;5071225;28;8843;-79
2023/12/30 10:50:20;;;;;;;;;22.80;20.60;;;;;13.13;38.00;99698.22;5071130;28;8884;-76
2023/12/30 10:52:52;;;;;;;;;22.00;22.00;;;;;13.14;38.06;99694.66;5070301;28;8882;-79
2023/12/30 10:55:30;;;;;;;;;21.40;19.80;;;;;12.43;38.49;99701.88;5071021;28;8869;-79
2023/12/30 10:58:03;;;;;;;;;22.40;20.80;;;;;12.57;39.22;99693.56;5069729;28;9624;-78
2023/12/30 11:00:36;;;;;;;;;25.20;24.60;;;;;12.83;37.98;99690.22;5070014;28;8886;-77
2023/12/30 11:03:06;;;;;;;;;16.40;13.00;;;;;13.13;37.67;99687.66;5070959;28;8846;-77
2023/12/30 11:05:41;;;;;;;;;22.40;20.00;;;;;13.40;37.32;99682.47;5051808;28;8850;-77
2023/12/30 11:08:11;;;;;;;;;25.60;24.60;;;;;12.98;37.53;99682.84;5035002;28;8843;-77
2023/12/30 11:10:40;;;;;;;;;26.00;22.80;;;;;13.14;37.64;99681.44;5070538;28;8839;-77
2023/12/30 11:13:10;;;;;;;;;19.20;17.20;;;;;13.19;37.37;99684.84;5071302;28;8846;-77
2023/12/30 11:15:41;;;;;;;;;26.20;25.00;;;;;13.47;37.01;99684.88;5035406;28;8850;-78
2023/12/30 11:18:13;;;;;;;;;26.60;23.60;;;;;13.41;36.99;99682.44;5070988;28;8850;-77
2023/12/30 11:20:46;;;;;;;;;24.40;23.00;;;;;12.81;37.64;99678.00;5065531;28;8899;-77
2023/12/30 11:23:16;;;;;;;;;23.00;22.20;;;;;13.19;37.25;99676.91;5050953;28;8872;-77
2023/12/30 11:25:47;;;;;;;;;21.60;20.60;;;;;13.26;37.11;99667.91;5015413;28;8872;-79
2023/12/30 11:28:17;;;;;;;;;24.00;22.20;;;;;13.38;37.31;99669.31;5050374;28;8934;-79
2023/12/30 11:31:00;;;;;;;;;27.00;25.80;;;;;13.66;37.00;99665.81;5066066;28;8844;-77
2023/12/30 11:33:29;;;;;;;;;26.00;25.00;;;;;13.77;36.76;99665.44;5031456;28;8873;-77
2023/12/30 11:36:02;;;;;;;;;25.00;25.00;;;;;13.70;36.88;99668.28;5052900;28;8877;-78